Time;durP1;ratioP1;P1;durP2;ratioP2;P2;SDS_P1;SDS_P2;PMS_P1;PMS_P2;Temp;Humidity;BMP_temperature;BMP_pressure;BME280_temperature;BME280_humidity;BME280_pressure;Samples;Min_cycle;Max_cycle;Signal;HPM_P1;HPM_P2
2023/01/15 00:00:40;;;;;;;28.83;4.82;;;;;;;;;;5005479;28;20313;-75
2023/01/15 00:03:05;;;;;;;28.80;4.07;;;;;;;;;;5006870;28;20122;-76
2023/01/15 00:05:34;;;;;;;26.70;4.53;;;;;;;;;;5007778;28;20448;-75
2023/01/15 00:08:01;;;;;;;27.20;4.57;;;;;;;;;;5007956;28;20037;-77
2023/01/15 00:10:26;;;;;;;41.58;4.75;;;;;;;;;;5007708;28;20265;-74
2023/01/15 00:12:52;;;;;;;32.28;5.10;;;;;;;;;;5009249;28;20033;-74
2023/01/15 00:15:17;;;;;;;28.88;4.60;;;;;;;;;;5006549;28;20030;-75
2023/01/15 00:17:43;;;;;;;23.42;4.13;;;;;;;;;;5009434;28;20038;-75
2023/01/15 00:20:09;;;;;;;34.58;4.88;;;;;;;;;;5010917;28;20555;-75
2023/01/15 00:22:37;;;;;;;32.15;5.57;;;;;;;;;;5008343;28;20029;-75
2023/01/15 00:27:58;;;;;;;36.85;6.15;;;;;;;;;;4968632;28;20474;-75
2023/01/15 00:30:23;;;;;;;33.03;4.90;;;;;;;;;;5007797;28;20042;-75
2023/01/15 00:32:49;;;;;;;24.63;4.10;;;;;;;;;;5008354;28;20460;-74
2023/01/15 00:35:19;;;;;;;40.83;7.05;;;;;;;;;;5001402;28;20365;-76
2023/01/15 00:37:44;;;;;;;33.28;5.10;;;;;;;;;;5002799;28;20044;-76
2023/01/15 00:40:13;;;;;;;40.22;6.28;;;;;;;;;;5003752;28;20120;-76
2023/01/15 00:42:39;;;;;;;33.45;4.60;;;;;;;;;;5001057;28;20030;-77
2023/01/15 00:45:10;;;;;;;34.08;5.80;;;;;;;;;;4999921;28;20493;-75
2023/01/15 00:47:37;;;;;;;31.70;5.57;;;;;;;;;;4996719;28;20382;-75
2023/01/15 00:50:03;;;;;;;31.50;4.28;;;;;;;;;;5001790;28;20471;-76
2023/01/15 00:52:29;;;;;;;23.92;4.05;;;;;;;;;;5019054;28;20040;-75
2023/01/15 00:54:54;;;;;;;34.72;5.10;;;;;;;;;;5020102;28;20493;-75
2023/01/15 00:57:20;;;;;;;31.15;5.18;;;;;;;;;;5022344;28;20031;-76
2023/01/15 00:59:45;;;;;;;38.55;5.13;;;;;;;;;;5022772;28;20621;-75
2023/01/15 01:02:10;;;;;;;24.55;5.05;;;;;;;;;;5021046;28;20265;-74
2023/01/15 01:04:36;;;;;;;30.55;4.32;;;;;;;;;;5022344;28;20036;-75
2023/01/15 01:07:01;;;;;;;35.13;4.95;;;;;;;;;;5020919;28;20029;-75
2023/01/15 01:09:26;;;;;;;29.42;4.75;;;;;;;;;;5022263;28;20036;-75
2023/01/15 01:11:56;;;;;;;30.38;5.40;;;;;;;;;;5021449;28;20029;-75
2023/01/15 01:14:24;;;;;;;33.25;5.43;;;;;;;;;;5019289;28;20052;-75
2023/01/15 01:16:50;;;;;;;24.50;3.78;;;;;;;;;;5021072;28;20199;-75
2023/01/15 01:19:17;;;;;;;37.92;5.20;;;;;;;;;;5021229;28;20436;-76
2023/01/15 01:21:44;;;;;;;34.22;4.90;;;;;;;;;;5020553;28;20045;-73
2023/01/15 01:24:10;;;;;;;29.58;4.38;;;;;;;;;;5019528;28;20540;-74
2023/01/15 01:26:35;;;;;;;29.48;4.65;;;;;;;;;;5018736;28;20044;-74
2023/01/15 01:29:01;;;;;;;25.13;4.05;;;;;;;;;;5021066;28;20049;-76
2023/01/15 01:31:27;;;;;;;27.52;5.28;;;;;;;;;;5020591;28;20055;-75
2023/01/15 01:33:53;;;;;;;30.02;5.97;;;;;;;;;;5021682;28;20122;-75
2023/01/15 01:36:19;;;;;;;27.42;4.78;;;;;;;;;;5020383;28;20037;-75
2023/01/15 01:38:53;;;;;;;34.17;5.20;;;;;;;;;;5019415;28;20036;-75
2023/01/15 01:41:19;;;;;;;28.73;4.65;;;;;;;;;;5020330;28;20056;-75
2023/01/15 01:43:52;;;;;;;43.78;6.60;;;;;;;;;;5035665;28;20599;-75
2023/01/15 01:46:17;;;;;;;21.02;3.42;;;;;;;;;;5015504;28;20084;-74
2023/01/15 01:48:43;;;;;;;35.33;5.32;;;;;;;;;;5009784;28;20464;-74
2023/01/15 01:51:08;;;;;;;25.80;5.20;;;;;;;;;;5022197;28;20037;-75
2023/01/15 01:53:34;;;;;;;41.40;6.93;;;;;;;;;;5016444;28;20603;-74
2023/01/15 01:55:59;;;;;;;28.25;3.70;;;;;;;;;;5024372;28;20029;-75
2023/01/15 01:58:27;;;;;;;36.33;6.55;;;;;;;;;;5032367;28;20040;-75
2023/01/15 02:00:52;;;;;;;38.20;6.10;;;;;;;;;;5043491;28;20098;-76
2023/01/15 02:03:20;;;;;;;33.28;4.97;;;;;;;;;;5008667;28;20037;-76
2023/01/15 02:05:47;;;;;;;42.55;6.35;;;;;;;;;;5022617;28;20112;-75
2023/01/15 02:08:13;;;;;;;26.80;4.60;;;;;;;;;;5019897;28;20087;-74
2023/01/15 02:10:40;;;;;;;33.25;4.88;;;;;;;;;;5014714;28;20053;-75
2023/01/15 02:13:35;;;;;;;31.25;4.95;;;;;;;;;;5047976;28;20138;-75
2023/01/15 02:16:18;;;;;;;30.65;4.50;;;;;;;;;;4998015;28;20040;-78
2023/01/15 02:18:51;;;;;;;24.30;4.72;;;;;;;;;;5019212;28;20817;-75
2023/01/15 02:21:18;;;;;;;30.23;4.78;;;;;;;;;;5017512;28;20049;-74
2023/01/15 02:23:56;;;;;;;42.08;6.20;;;;;;;;;;5015688;28;20029;-76
2023/01/15 02:26:23;;;;;;;27.45;5.15;;;;;;;;;;5015885;28;20033;-76
2023/01/15 02:28:53;;;;;;;33.33;5.15;;;;;;;;;;5010417;28;20274;-76
2023/01/15 02:31:36;;;;;;;24.20;4.10;;;;;;;;;;5004583;28;20049;-74
2023/01/15 02:34:05;;;;;;;26.63;5.15;;;;;;;;;;5001872;28;20395;-74
2023/01/15 02:36:32;;;;;;;28.30;4.22;;;;;;;;;;5001759;28;20030;-75
2023/01/15 02:39:00;;;;;;;33.38;4.90;;;;;;;;;;5004186;28;20493;-75
2023/01/15 02:41:29;;;;;;;37.80;6.05;;;;;;;;;;5003373;28;20188;-72
2023/01/15 02:43:55;;;;;;;34.45;6.07;;;;;;;;;;5003772;28;20355;-75
2023/01/15 02:46:23;;;;;;;42.78;5.10;;;;;;;;;;5010399;28;20086;-75
2023/01/15 02:48:51;;;;;;;33.08;5.45;;;;;;;;;;5023610;28;20186;-75
2023/01/15 02:51:19;;;;;;;37.60;5.18;;;;;;;;;;5020149;28;20041;-75
2023/01/15 02:53:45;;;;;;;39.53;5.40;;;;;;;;;;5003863;28;20036;-75
2023/01/15 02:56:16;;;;;;;36.60;5.93;;;;;;;;;;5003230;28;20730;-74
2023/01/15 02:58:42;;;;;;;45.35;6.22;;;;;;;;;;5002111;28;20037;-76
2023/01/15 03:01:15;;;;;;;31.70;5.38;;;;;;;;;;5003282;28;20053;-76
2023/01/15 03:03:43;;;;;;;33.47;5.00;;;;;;;;;;5022548;28;20125;-76
2023/01/15 03:06:16;;;;;;;34.85;6.15;;;;;;;;;;5036010;28;20271;-76
2023/01/15 03:08:41;;;;;;;36.88;5.13;;;;;;;;;;5034561;28;20033;-77
2023/01/15 03:11:08;;;;;;;37.75;5.35;;;;;;;;;;5038173;28;20052;-76
2023/01/15 03:13:36;;;;;;;37.05;4.80;;;;;;;;;;5037450;28;20033;-77
2023/01/15 03:18:53;;;;;;;35.00;5.25;;;;;;;;;;5034323;28;20052;-76
2023/01/15 03:21:21;;;;;;;28.80;4.35;;;;;;;;;;5037021;28;20120;-76
2023/01/15 03:23:50;;;;;;;40.65;5.97;;;;;;;;;;5035369;28;20025;-76
2023/01/15 03:26:17;;;;;;;26.13;4.68;;;;;;;;;;5033427;28;20130;-75
2023/01/15 03:28:43;;;;;;;46.33;5.82;;;;;;;;;;5034779;28;20053;-77
2023/01/15 03:31:08;;;;;;;31.17;4.20;;;;;;;;;;5035376;28;20044;-75
2023/01/15 03:33:34;;;;;;;34.28;4.80;;;;;;;;;;5034957;28;20566;-76
2023/01/15 03:36:00;;;;;;;26.98;4.65;;;;;;;;;;5031050;28;20837;-76
2023/01/15 03:38:29;;;;;;;24.92;5.15;;;;;;;;;;5031673;28;20607;-77
2023/01/15 03:41:13;;;;;;;35.38;4.80;;;;;;;;;;5035231;28;20244;-75
2023/01/15 03:43:51;;;;;;;39.80;6.35;;;;;;;;;;5039320;28;20045;-75
2023/01/15 03:46:37;;;;;;;27.67;5.00;;;;;;;;;;5036766;28;20033;-75
2023/01/15 03:49:11;;;;;;;36.60;4.95;;;;;;;;;;5031740;28;20112;-78
2023/01/15 03:51:43;;;;;;;24.65;4.40;;;;;;;;;;5033565;28;20116;-75
2023/01/15 03:54:14;;;;;;;29.60;5.77;;;;;;;;;;5031839;28;20040;-76
2023/01/15 03:56:43;;;;;;;28.03;5.00;;;;;;;;;;5037106;28;20033;-75
2023/01/15 03:59:12;;;;;;;33.15;4.97;;;;;;;;;;5040314;28;20260;-77
2023/01/15 04:01:38;;;;;;;32.95;5.88;;;;;;;;;;5037449;28;20107;-74
2023/01/15 04:04:04;;;;;;;27.52;4.22;;;;;;;;;;5034991;28;20087;-76
2023/01/15 04:06:35;;;;;;;27.25;4.38;;;;;;;;;;5036888;28;20369;-76
2023/01/15 04:09:02;;;;;;;33.65;5.47;;;;;;;;;;5037703;28;20317;-75
2023/01/15 04:11:27;;;;;;;42.13;4.93;;;;;;;;;;5067849;28;20515;-76
2023/01/15 04:13:57;;;;;;;31.08;4.88;;;;;;;;;;5035585;28;20501;-76
2023/01/15 04:16:29;;;;;;;32.55;4.95;;;;;;;;;;5037278;28;20033;-75
2023/01/15 04:18:55;;;;;;;49.88;6.95;;;;;;;;;;5039577;28;20025;-74
2023/01/15 04:21:20;;;;;;;43.90;5.88;;;;;;;;;;5034039;28;20296;-75
2023/01/15 04:23:46;;;;;;;28.77;4.18;;;;;;;;;;5035027;28;20596;-76
2023/01/15 04:26:12;;;;;;;35.17;5.88;;;;;;;;;;5032040;28;20140;-75
2023/01/15 04:28:37;;;;;;;32.92;4.90;;;;;;;;;;5036590;28;20398;-76
2023/01/15 04:31:03;;;;;;;36.38;4.45;;;;;;;;;;5033172;28;20091;-76
2023/01/15 04:33:28;;;;;;;31.35;5.28;;;;;;;;;;5034937;28;20033;-77
2023/01/15 04:35:53;;;;;;;28.88;4.55;;;;;;;;;;5015777;28;20412;-77
2023/01/15 04:38:19;;;;;;;20.13;4.32;;;;;;;;;;5034031;28;20039;-74
2023/01/15 04:46:12;;;;;;;35.55;5.03;;;;;;;;;;5035369;28;20061;-75
2023/01/15 04:48:39;;;;;;;43.47;5.38;;;;;;;;;;5039101;28;20182;-74
2023/01/15 04:51:06;;;;;;;40.60;5.25;;;;;;;;;;5020861;28;20036;-76
2023/01/15 04:53:32;;;;;;;34.70;4.28;;;;;;;;;;5020531;28;20057;-76
2023/01/15 04:56:01;;;;;;;28.88;4.53;;;;;;;;;;5020793;28;20341;-75
2023/01/15 04:58:26;;;;;;;30.70;4.25;;;;;;;;;;5020427;28;20037;-76
2023/01/15 05:00:52;;;;;;;25.73;4.28;;;;;;;;;;5021020;28;20036;-74
2023/01/15 05:03:19;;;;;;;36.85;5.28;;;;;;;;;;5017970;28;20532;-74
2023/01/15 05:05:44;;;;;;;42.85;5.65;;;;;;;;;;5052478;28;20072;-76
2023/01/15 05:08:09;;;;;;;29.58;4.78;;;;;;;;;;5020349;28;20529;-77
2023/01/15 05:10:35;;;;;;;44.42;6.53;;;;;;;;;;5018294;28;20104;-77
2023/01/15 05:13:00;;;;;;;24.38;3.50;;;;;;;;;;5017685;28;20098;-76
2023/01/15 05:15:25;;;;;;;33.95;4.43;;;;;;;;;;5019108;28;20057;-76
2023/01/15 05:17:51;;;;;;;37.80;5.13;;;;;;;;;;5001874;28;20029;-74
2023/01/15 05:20:16;;;;;;;24.08;3.83;;;;;;;;;;5020650;28;20744;-73
2023/01/15 05:22:42;;;;;;;38.97;5.32;;;;;;;;;;5022450;28;20106;-74
2023/01/15 05:25:08;;;;;;;27.65;4.55;;;;;;;;;;5023616;28;20054;-75
2023/01/15 05:27:33;;;;;;;35.90;5.30;;;;;;;;;;5023217;28;20033;-75
2023/01/15 05:29:58;;;;;;;42.28;5.25;;;;;;;;;;4979610;28;1267853;-75
2023/01/15 05:32:23;;;;;;;30.05;4.82;;;;;;;;;;5025479;28;20136;-74
2023/01/15 05:34:49;;;;;;;33.72;4.82;;;;;;;;;;5022328;28;20044;-75
2023/01/15 05:37:14;;;;;;;24.38;4.18;;;;;;;;;;5022938;28;20028;-75
2023/01/15 05:39:39;;;;;;;44.75;5.00;;;;;;;;;;5024204;28;20424;-74
2023/01/15 05:42:06;;;;;;;40.17;6.25;;;;;;;;;;5022919;28;20047;-73
2023/01/15 05:44:32;;;;;;;24.75;4.38;;;;;;;;;;5022276;28;20036;-75
2023/01/15 05:46:59;;;;;;;32.13;4.65;;;;;;;;;;5035665;28;20488;-77
2023/01/15 05:49:25;;;;;;;23.90;3.80;;;;;;;;;;5024285;28;20029;-75
2023/01/15 05:51:51;;;;;;;17.38;3.97;;;;;;;;;;5024655;28;20577;-75
2023/01/15 05:54:19;;;;;;;33.13;5.05;;;;;;;;;;5023928;28;20386;-75
2023/01/15 05:56:44;;;;;;;28.35;4.35;;;;;;;;;;5025041;28;20044;-75
2023/01/15 05:59:12;;;;;;;32.38;4.72;;;;;;;;;;5024675;28;20162;-72
2023/01/15 06:01:38;;;;;;;37.15;5.15;;;;;;;;;;5024264;28;20045;-76
2023/01/15 06:04:04;;;;;;;41.78;5.38;;;;;;;;;;5024897;28;20109;-76
2023/01/15 06:06:30;;;;;;;29.48;3.75;;;;;;;;;;5024062;28;20110;-74
2023/01/15 06:08:55;;;;;;;31.63;4.53;;;;;;;;;;5021771;28;20029;-75
2023/01/15 06:11:21;;;;;;;31.77;4.65;;;;;;;;;;5023938;28;20520;-75
2023/01/15 06:13:46;;;;;;;29.88;4.10;;;;;;;;;;5025149;28;20110;-75
2023/01/15 06:16:12;;;;;;;32.33;5.63;;;;;;;;;;5021385;28;20039;-75
2023/01/15 06:18:40;;;;;;;38.30;6.00;;;;;;;;;;5033159;28;20040;-75
2023/01/15 06:21:06;;;;;;;30.30;4.82;;;;;;;;;;5055359;28;20641;-75
2023/01/15 06:23:37;;;;;;;44.55;6.15;;;;;;;;;;5023844;28;20791;-74
2023/01/15 06:26:06;;;;;;;37.58;5.20;;;;;;;;;;5023549;28;20036;-75
2023/01/15 06:28:31;;;;;;;31.98;4.80;;;;;;;;;;5034428;28;20390;-76
2023/01/15 06:30:57;;;;;;;34.85;6.35;;;;;;;;;;5040934;28;20107;-75
2023/01/15 06:33:26;;;;;;;38.95;5.95;;;;;;;;;;5039321;28;20029;-75
2023/01/15 06:35:52;;;;;;;23.00;4.07;;;;;;;;;;5040278;28;20025;-77
2023/01/15 06:38:17;;;;;;;29.95;5.00;;;;;;;;;;5040510;28;20082;-76
2023/01/15 06:40:42;;;;;;;32.03;4.78;;;;;;;;;;5044497;28;20101;-75
2023/01/15 06:48:56;;;;;;;35.08;5.57;;;;;;;;;;4954298;28;20480;-74
2023/01/15 06:51:22;;;;;;;30.45;5.57;;;;;;;;;;4975534;28;20040;-76
2023/01/15 06:53:49;;;;;;;36.33;5.38;;;;;;;;;;5017265;28;20191;-76
2023/01/15 06:56:15;;;;;;;37.92;5.30;;;;;;;;;;5022213;28;20127;-77
2023/01/15 06:58:41;;;;;;;32.95;5.30;;;;;;;;;;5016789;28;20105;-74
2023/01/15 07:01:07;;;;;;;19.80;3.67;;;;;;;;;;5022351;28;20116;-77
2023/01/15 07:03:33;;;;;;;37.85;5.75;;;;;;;;;;5023889;28;20032;-75
2023/01/15 07:05:58;;;;;;;24.48;4.35;;;;;;;;;;5020193;28;20017;-75
2023/01/15 07:08:26;;;;;;;29.17;4.40;;;;;;;;;;5018437;28;20036;-77
2023/01/15 07:10:51;;;;;;;27.90;5.38;;;;;;;;;;5021140;28;20029;-77
2023/01/15 07:13:16;;;;;;;38.17;4.72;;;;;;;;;;5022231;28;20052;-76
2023/01/15 07:15:42;;;;;;;25.58;4.32;;;;;;;;;;5021342;28;20026;-76
2023/01/15 07:18:09;;;;;;;36.50;5.47;;;;;;;;;;5020242;28;20390;-76
2023/01/15 07:20:34;;;;;;;33.00;4.88;;;;;;;;;;5018694;28;20029;-77
2023/01/15 07:23:00;;;;;;;43.53;6.03;;;;;;;;;;5020510;28;20022;-77
2023/01/15 07:25:25;;;;;;;37.88;5.85;;;;;;;;;;5021668;28;20026;-78
2023/01/15 07:27:51;;;;;;;36.28;5.97;;;;;;;;;;5022042;28;20103;-76
2023/01/15 07:30:17;;;;;;;37.92;6.25;;;;;;;;;;5022273;28;20041;-76
2023/01/15 07:32:45;;;;;;;38.00;5.03;;;;;;;;;;5018243;28;20508;-75
2023/01/15 07:35:10;;;;;;;46.30;7.80;;;;;;;;;;5019944;28;20022;-76
2023/01/15 07:37:36;;;;;;;33.60;4.85;;;;;;;;;;5019495;28;20021;-77
2023/01/15 07:40:02;;;;;;;47.42;6.65;;;;;;;;;;5002755;28;20017;-77
2023/01/15 07:50:39;;;;;;;32.35;5.30;;;;;;;;;;5043201;28;20041;-77
2023/01/15 07:53:04;;;;;;;31.45;5.63;;;;;;;;;;5044107;28;20087;-77
2023/01/15 07:55:30;;;;;;;38.75;6.10;;;;;;;;;;5026587;28;20546;-77
2023/01/15 07:57:55;;;;;;;30.73;4.50;;;;;;;;;;5008587;28;20025;-78
2023/01/15 08:00:21;;;;;;;32.47;4.63;;;;;;;;;;5036165;28;20039;-77
2023/01/15 08:02:48;;;;;;;27.35;4.68;;;;;;;;;;5039875;28;20393;-77
2023/01/15 08:05:14;;;;;;;40.60;5.10;;;;;;;;;;5020855;28;20044;-75
2023/01/15 08:07:40;;;;;;;42.55;7.35;;;;;;;;;;5038109;28;20025;-75
2023/01/15 08:10:06;;;;;;;30.83;5.65;;;;;;;;;;5034539;28;20014;-78
2023/01/15 08:15:16;;;;;;;39.13;6.43;;;;;;;;;;5038288;28;20021;-78
2023/01/15 08:17:46;;;;;;;53.60;6.65;;;;;;;;;;5038195;28;20027;-77
2023/01/15 08:20:18;;;;;;;23.05;5.10;;;;;;;;;;5038927;28;20025;-76
2023/01/15 08:22:43;;;;;;;23.67;4.05;;;;;;;;;;5038719;28;20064;-75
2023/01/15 08:25:10;;;;;;;43.47;6.93;;;;;;;;;;5043560;28;20017;-75
2023/01/15 08:27:36;;;;;;;35.35;5.90;;;;;;;;;;5021524;28;20109;-77
2023/01/15 08:30:03;;;;;;;35.85;5.78;;;;;;;;;;5020159;28;20041;-77
2023/01/15 08:32:28;;;;;;;30.90;4.97;;;;;;;;;;5035274;28;20130;-76
2023/01/15 08:34:54;;;;;;;33.58;4.55;;;;;;;;;;5020995;28;20036;-75
2023/01/15 08:37:19;;;;;;;41.90;6.13;;;;;;;;;;5038806;28;20033;-77
2023/01/15 08:39:44;;;;;;;44.80;5.53;;;;;;;;;;5046042;28;20456;-78
2023/01/15 08:42:10;;;;;;;25.98;4.82;;;;;;;;;;5027090;28;20623;-76
2023/01/15 08:44:36;;;;;;;37.50;5.72;;;;;;;;;;5010337;28;20022;-76
2023/01/15 08:47:02;;;;;;;39.72;5.22;;;;;;;;;;5017135;28;20060;-76
2023/01/15 08:49:27;;;;;;;41.78;6.28;;;;;;;;;;5023526;28;20086;-76
2023/01/15 08:51:53;;;;;;;34.05;5.75;;;;;;;;;;5004965;28;20064;-75
2023/01/15 08:54:19;;;;;;;37.17;6.35;;;;;;;;;;5025126;28;20044;-76
2023/01/15 08:56:45;;;;;;;41.67;6.38;;;;;;;;;;5020550;28;20033;-71
2023/01/15 08:59:11;;;;;;;38.88;5.50;;;;;;;;;;5024266;28;20094;-74
2023/01/15 09:01:37;;;;;;;46.03;6.15;;;;;;;;;;5021647;28;20478;-75
2023/01/15 09:04:05;;;;;;;50.83;7.70;;;;;;;;;;5026450;28;20033;-76
2023/01/15 09:06:30;;;;;;;34.55;4.80;;;;;;;;;;5024426;28;20060;-74
2023/01/15 09:08:57;;;;;;;30.25;5.55;;;;;;;;;;5025289;28;20025;-74
2023/01/15 09:11:25;;;;;;;34.92;6.10;;;;;;;;;;5023288;28;20033;-74
2023/01/15 09:13:50;;;;;;;43.28;6.40;;;;;;;;;;5022406;28;20037;-75
2023/01/15 09:16:18;;;;;;;41.13;6.95;;;;;;;;;;4980739;28;20033;-75
2023/01/15 09:18:48;;;;;;;37.75;6.50;;;;;;;;;;5021700;28;20037;-77
2023/01/15 09:21:15;;;;;;;43.80;5.70;;;;;;;;;;5024281;28;20182;-76
2023/01/15 09:23:41;;;;;;;41.50;6.80;;;;;;;;;;5029406;28;20252;-75
2023/01/15 09:26:22;;;;;;;35.15;4.65;;;;;;;;;;5020009;28;20936;-75
2023/01/15 09:28:47;;;;;;;32.92;4.82;;;;;;;;;;5022415;28;20114;-74
2023/01/15 09:31:17;;;;;;;44.25;6.57;;;;;;;;;;5020808;28;20044;-74
2023/01/15 09:33:43;;;;;;;36.58;5.22;;;;;;;;;;5024179;28;20497;-74
2023/01/15 09:36:16;;;;;;;40.65;6.03;;;;;;;;;;5023361;28;20083;-73
2023/01/15 09:38:42;;;;;;;30.92;5.25;;;;;;;;;;5030028;28;20662;-76
2023/01/15 09:42:04;;;;;;;42.55;5.57;;;;;;;;;;5033970;28;20041;-77
2023/01/15 09:44:15;;;;;;;48.17;7.82;;;;;;;;;;5039034;28;20603;-76
2023/01/15 09:47:07;;;;;;;36.60;5.70;;;;;;;;;;5035919;28;20018;-75
2023/01/15 09:49:51;;;;;;;36.83;7.07;;;;;;;;;;5019814;28;20037;-77
2023/01/15 09:52:35;;;;;;;43.60;6.00;;;;;;;;;;5039419;28;20405;-76
2023/01/15 09:55:03;;;;;;;34.30;6.00;;;;;;;;;;5040623;28;20243;-80
2023/01/15 09:57:29;;;;;;;37.45;6.13;;;;;;;;;;5030203;28;20473;-79
2023/01/15 10:00:02;;;;;;;40.95;5.57;;;;;;;;;;5022534;28;20036;-75
2023/01/15 10:02:36;;;;;;;30.75;6.05;;;;;;;;;;5018322;28;20036;-75
2023/01/15 10:05:06;;;;;;;35.50;6.00;;;;;;;;;;5019551;28;20302;-73
2023/01/15 10:07:50;;;;;;;29.88;5.50;;;;;;;;;;5020062;28;20497;-74
2023/01/15 10:10:18;;;;;;;32.83;5.28;;;;;;;;;;5024837;28;21198;-77
2023/01/15 10:12:44;;;;;;;34.17;5.60;;;;;;;;;;5024703;28;20737;-73
2023/01/15 10:15:16;;;;;;;34.35;6.07;;;;;;;;;;5024990;28;20029;-75
2023/01/15 10:17:48;;;;;;;32.28;5.53;;;;;;;;;;5022058;28;20160;-74
2023/01/15 10:20:16;;;;;;;33.22;5.63;;;;;;;;;;5024437;28;20588;-75
2023/01/15 10:23:01;;;;;;;41.20;6.60;;;;;;;;;;5023746;28;24974;-75
2023/01/15 10:25:29;;;;;;;41.55;6.60;;;;;;;;;;4992757;28;20029;-75
2023/01/15 10:27:58;;;;;;;44.13;6.78;;;;;;;;;;5024144;28;20025;-75
2023/01/15 10:30:33;;;;;;;40.53;6.28;;;;;;;;;;5024658;28;20348;-72
2023/01/15 10:33:03;;;;;;;41.40;5.68;;;;;;;;;;5023535;28;20033;-75
2023/01/15 10:35:39;;;;;;;50.55;6.72;;;;;;;;;;5024209;28;20409;-75
2023/01/15 10:38:12;;;;;;;44.85;7.10;;;;;;;;;;5023936;28;20095;-74
2023/01/15 10:40:52;;;;;;;50.70;7.07;;;;;;;;;;5023592;28;20159;-74
2023/01/15 10:43:20;;;;;;;39.45;6.40;;;;;;;;;;5021852;28;20277;-74
2023/01/15 10:45:49;;;;;;;31.75;5.72;;;;;;;;;;5023774;28;20601;-74
2023/01/15 10:48:23;;;;;;;37.30;5.45;;;;;;;;;;5042341;28;20127;-73
2023/01/15 10:50:48;;;;;;;27.75;5.03;;;;;;;;;;5041748;28;20047;-77
2023/01/15 10:53:20;;;;;;;39.20;7.07;;;;;;;;;;5043463;28;20028;-71
2023/01/15 10:55:56;;;;;;;47.58;5.97;;;;;;;;;;5043200;28;20035;-74
2023/01/15 10:58:28;;;;;;;42.15;5.95;;;;;;;;;;5041865;28;20752;-74
2023/01/15 11:00:57;;;;;;;45.45;6.25;;;;;;;;;;5043542;28;20094;-74
2023/01/15 11:03:29;;;;;;;47.90;7.28;;;;;;;;;;5041112;28;20140;-74
2023/01/15 11:05:54;;;;;;;50.28;7.90;;;;;;;;;;5042777;28;20055;-73
2023/01/15 11:08:23;;;;;;;42.70;6.43;;;;;;;;;;5043603;28;20038;-72
2023/01/15 11:10:48;;;;;;;38.75;5.78;;;;;;;;;;5043387;28;20028;-75
2023/01/15 11:21:27;;;;;;;44.97;7.63;;;;;;;;;;5042740;28;20036;-74
2023/01/15 11:23:57;;;;;;;42.63;5.75;;;;;;;;;;5042977;28;20025;-73
2023/01/15 11:26:26;;;;;;;41.17;6.68;;;;;;;;;;5043182;28;20324;-71
2023/01/15 11:28:52;;;;;;;49.60;6.88;;;;;;;;;;5042651;28;20082;-73
2023/01/15 11:31:19;;;;;;;52.75;6.82;;;;;;;;;;5042290;28;20041;-72
2023/01/15 11:34:04;;;;;;;33.30;5.97;;;;;;;;;;5042953;28;20099;-72
2023/01/15 11:36:30;;;;;;;46.78;6.63;;;;;;;;;;5038025;28;20033;-72
2023/01/15 11:38:55;;;;;;;41.53;7.00;;;;;;;;;;5039727;28;20037;-73
2023/01/15 11:52:40;;;;;;;50.63;7.85;;;;;;;;;;5042540;28;20190;-73
2023/01/15 11:55:10;;;;;;;47.05;7.10;;;;;;;;;;5043150;28;20208;-73
2023/01/15 11:57:36;;;;;;;41.85;7.78;;;;;;;;;;5042852;28;20036;-72
2023/01/15 12:00:03;;;;;;;34.60;6.65;;;;;;;;;;5053434;28;20041;-75
2023/01/15 12:02:50;;;;;;;40.60;5.88;;;;;;;;;;5056706;28;20036;-71
2023/01/15 12:05:16;;;;;;;40.30;7.07;;;;;;;;;;5039961;28;20478;-73
2023/01/15 12:07:42;;;;;;;43.45;6.13;;;;;;;;;;5041555;28;20108;-74
2023/01/15 12:10:09;;;;;;;45.67;7.38;;;;;;;;;;5059858;28;20120;-74
2023/01/15 12:12:38;;;;;;;41.40;7.13;;;;;;;;;;5063383;28;20051;-74
2023/01/15 12:15:05;;;;;;;38.05;5.82;;;;;;;;;;5059372;28;20075;-73
2023/01/15 12:17:30;;;;;;;42.72;7.22;;;;;;;;;;5057193;28;20039;-73
2023/01/15 12:20:14;;;;;;;41.35;7.13;;;;;;;;;;5059022;28;20028;-73
2023/01/15 12:22:40;;;;;;;47.05;6.95;;;;;;;;;;5058124;28;20090;-74
2023/01/15 12:25:26;;;;;;;42.17;6.45;;;;;;;;;;5054423;28;20691;-72
2023/01/15 12:27:57;;;;;;;54.97;7.93;;;;;;;;;;5062946;28;20028;-74
2023/01/15 12:30:26;;;;;;;40.45;7.50;;;;;;;;;;5059274;28;20052;-76
2023/01/15 12:32:59;;;;;;;37.35;6.03;;;;;;;;;;5058437;28;20363;-73
2023/01/15 12:35:28;;;;;;;42.17;6.43;;;;;;;;;;5055408;28;20201;-74
2023/01/15 12:37:56;;;;;;;34.70;6.78;;;;;;;;;;5058748;28;20211;-74
2023/01/15 12:40:29;;;;;;;49.13;6.57;;;;;;;;;;5056873;28;20032;-76
2023/01/15 12:45:45;;;;;;;45.00;5.88;;;;;;;;;;5059910;28;20423;-74
2023/01/15 12:48:32;;;;;;;61.60;7.93;;;;;;;;;;5058710;28;20437;-75
2023/01/15 12:51:00;;;;;;;44.55;6.00;;;;;;;;;;5038653;28;20532;-74
2023/01/15 12:53:36;;;;;;;28.20;5.28;;;;;;;;;;5060105;28;20036;-74
2023/01/15 12:56:14;;;;;;;43.40;5.80;;;;;;;;;;5058456;28;20033;-73
2023/01/15 12:58:42;;;;;;;37.40;6.63;;;;;;;;;;5045212;28;20557;-75
2023/01/15 13:01:21;;;;;;;39.85;5.97;;;;;;;;;;5046767;28;20535;-73
2023/01/15 13:03:46;;;;;;;40.25;6.95;;;;;;;;;;5045423;28;20029;-75
2023/01/15 13:06:13;;;;;;;37.97;6.45;;;;;;;;;;5042266;28;20787;-76
2023/01/15 13:08:49;;;;;;;37.25;6.43;;;;;;;;;;5043283;28;20024;-73
2023/01/15 13:11:15;;;;;;;43.38;6.35;;;;;;;;;;5022020;28;20428;-72
2023/01/15 13:13:56;;;;;;;46.45;6.97;;;;;;;;;;5044678;28;20669;-76
2023/01/15 13:16:22;;;;;;;51.88;7.20;;;;;;;;;;5045441;28;20204;-72
2023/01/15 13:18:47;;;;;;;49.72;7.30;;;;;;;;;;5045210;28;20089;-75
2023/01/15 13:21:16;;;;;;;42.13;6.43;;;;;;;;;;5044180;28;20071;-74
2023/01/15 13:23:42;;;;;;;43.20;6.40;;;;;;;;;;5041997;28;20028;-73
2023/01/15 13:26:10;;;;;;;38.35;6.03;;;;;;;;;;5043338;28;20037;-73
2023/01/15 13:28:38;;;;;;;44.90;7.15;;;;;;;;;;5043098;28;20033;-73
2023/01/15 13:31:09;;;;;;;48.53;7.82;;;;;;;;;;5043071;28;20040;-72
2023/01/15 13:33:40;;;;;;;43.85;6.80;;;;;;;;;;5042115;28;20040;-75
2023/01/15 13:36:14;;;;;;;35.93;5.70;;;;;;;;;;5042327;28;20190;-75
2023/01/15 13:38:45;;;;;;;39.20;5.85;;;;;;;;;;5004200;28;20255;-76
2023/01/15 13:41:15;;;;;;;52.58;7.03;;;;;;;;;;5006245;28;20037;-73
2023/01/15 13:43:41;;;;;;;57.83;7.93;;;;;;;;;;5013945;28;20034;-73
2023/01/15 13:46:12;;;;;;;41.80;7.03;;;;;;;;;;5027611;28;20063;-74
2023/01/15 13:48:45;;;;;;;57.35;7.30;;;;;;;;;;5038435;28;20037;-74
2023/01/15 13:51:23;;;;;;;35.92;5.65;;;;;;;;;;5030591;28;20029;-74
2023/01/15 13:53:49;;;;;;;46.22;5.57;;;;;;;;;;5038698;28;20021;-73
2023/01/15 13:56:24;;;;;;;41.28;6.07;;;;;;;;;;5036508;28;20021;-73
2023/01/15 13:58:52;;;;;;;38.38;5.13;;;;;;;;;;5031073;28;20029;-73
2023/01/15 14:01:20;;;;;;;46.10;6.75;;;;;;;;;;5032351;28;20036;-74
2023/01/15 14:04:05;;;;;;;39.60;5.53;;;;;;;;;;5035357;28;20028;-72
2023/01/15 14:06:50;;;;;;;36.60;5.80;;;;;;;;;;5035825;28;20086;-74
2023/01/15 14:09:16;;;;;;;37.63;4.78;;;;;;;;;;5032410;28;20189;-74
2023/01/15 14:12:00;;;;;;;41.88;6.25;;;;;;;;;;5037820;28;20418;-74
2023/01/15 14:14:44;;;;;;;38.88;5.43;;;;;;;;;;5016831;28;20261;-74
2023/01/15 14:17:12;;;;;;;46.03;5.72;;;;;;;;;;5034476;28;20033;-73
2023/01/15 14:19:56;;;;;;;29.02;5.03;;;;;;;;;;5036733;28;20294;-74
2023/01/15 14:22:24;;;;;;;44.13;5.57;;;;;;;;;;5033970;28;20427;-74
2023/01/15 14:25:00;;;;;;;41.78;6.40;;;;;;;;;;5039328;28;20485;-74
2023/01/15 14:27:32;;;;;;;46.80;6.78;;;;;;;;;;5037092;28;20021;-74
2023/01/15 14:30:06;;;;;;;37.60;4.72;;;;;;;;;;5064186;28;20182;-74
2023/01/15 14:32:50;;;;;;;43.42;6.68;;;;;;;;;;5036674;28;20505;-74
2023/01/15 14:35:20;;;;;;;32.50;4.85;;;;;;;;;;5018832;28;20075;-73
2023/01/15 14:37:50;;;;;;;30.27;5.10;;;;;;;;;;5017698;28;20397;-74
2023/01/15 14:40:23;;;;;;;35.63;5.65;;;;;;;;;;5022854;28;20022;-74
2023/01/15 14:43:08;;;;;;;36.35;4.80;;;;;;;;;;5014608;28;20125;-74
2023/01/15 14:45:37;;;;;;;34.65;5.03;;;;;;;;;;5036156;28;20037;-74
2023/01/15 14:48:16;;;;;;;32.55;5.45;;;;;;;;;;5036654;28;20039;-74
2023/01/15 14:50:42;;;;;;;39.33;6.38;;;;;;;;;;5036853;28;20345;-75
2023/01/15 14:53:14;;;;;;;33.42;4.90;;;;;;;;;;5038887;28;20048;-74
2023/01/15 14:55:40;;;;;;;23.33;4.50;;;;;;;;;;5035608;28;20036;-74
2023/01/15 14:58:13;;;;;;;32.60;4.80;;;;;;;;;;5032907;28;20445;-75
2023/01/15 15:00:42;;;;;;;40.35;5.10;;;;;;;;;;5037316;28;20051;-75
2023/01/15 15:03:21;;;;;;;47.00;6.25;;;;;;;;;;5036873;28;20053;-73
2023/01/15 15:05:47;;;;;;;40.58;5.88;;;;;;;;;;5034014;28;20128;-75
2023/01/15 15:08:14;;;;;;;44.28;6.53;;;;;;;;;;5039589;28;20032;-74
2023/01/15 15:10:42;;;;;;;49.08;6.78;;;;;;;;;;5036965;28;20424;-75
2023/01/15 15:13:21;;;;;;;39.30;5.05;;;;;;;;;;5036505;28;20036;-74
2023/01/15 15:15:53;;;;;;;44.55;6.25;;;;;;;;;;5035735;28;20120;-74
2023/01/15 15:18:18;;;;;;;;;;;;;;;;;;5039102;28;20033;-74
2023/01/15 15:20:44;;;;;;;51.55;7.35;;;;;;;;;;5041961;28;19909;-75
2023/01/15 15:23:28;;;;;;;35.22;4.80;;;;;;;;;;5037843;28;20060;-75
2023/01/15 15:25:58;;;;;;;43.15;5.53;;;;;;;;;;5038464;28;20486;-74
2023/01/15 15:28:23;;;;;;;47.03;7.03;;;;;;;;;;5038546;28;20025;-75
2023/01/15 15:30:53;;;;;;;31.08;5.43;;;;;;;;;;5041816;28;20044;-73